createdAt,value
2019-03-27T00:00:13.175Z,0.00
2019-03-27T00:01:13.164Z,0.00
2019-03-27T00:02:13.152Z,0.00
2019-03-27T00:03:13.143Z,0.00
2019-03-27T00:04:13.134Z,0.00
2019-03-27T00:05:13.138Z,0.00
2019-03-27T00:06:13.108Z,0.00
2019-03-27T00:07:13.098Z,0.00
2019-03-27T00:08:13.092Z,0.00
2019-03-27T00:09:13.101Z,0.00
2019-03-27T00:10:13.061Z,0.00
2019-03-27T00:11:16.036Z,0.00
2019-03-27T00:12:13.040Z,0.00
2019-03-27T00:13:13.029Z,0.00
2019-03-27T00:14:13.017Z,0.00
2019-03-27T00:15:13.928Z,0.00
2019-03-27T00:16:12.995Z,0.00
2019-03-27T00:17:12.984Z,0.00
2019-03-27T00:18:12.974Z,0.00
2019-03-27T00:19:12.961Z,0.00
2019-03-27T00:20:12.955Z,0.00
2019-03-27T00:21:12.954Z,0.00
2019-03-27T00:22:12.926Z,0.00
2019-03-27T00:23:12.917Z,0.00
2019-03-27T00:24:12.905Z,0.00
2019-03-27T00:25:12.894Z,0.00
2019-03-27T00:26:12.910Z,0.00
2019-03-27T00:27:12.876Z,0.00
2019-03-27T00:28:12.863Z,0.00
2019-03-27T00:29:12.849Z,0.00
2019-03-27T00:30:12.840Z,0.00
2019-03-27T00:31:12.828Z,0.00
2019-03-27T00:32:12.846Z,0.00
2019-03-27T00:33:12.804Z,0.00
2019-03-27T00:34:12.794Z,0.00
2019-03-27T00:35:12.783Z,0.00
2019-03-27T00:36:12.770Z,0.00
2019-03-27T00:37:12.766Z,0.00
2019-03-27T00:38:12.779Z,0.00
2019-03-27T00:39:12.738Z,0.00
2019-03-27T00:40:12.741Z,0.00
2019-03-27T00:41:12.718Z,0.00
2019-03-27T00:42:12.704Z,0.00
2019-03-27T00:43:13.685Z,0.00
2019-03-27T00:44:12.711Z,0.00
2019-03-27T00:45:25.411Z,0.00
2019-03-27T00:46:13.727Z,0.00
2019-03-27T00:47:12.649Z,0.00
2019-03-27T00:48:12.647Z,0.00
2019-03-27T00:49:12.623Z,0.00
2019-03-27T00:50:12.638Z,0.00
2019-03-27T00:51:12.601Z,0.00
2019-03-27T00:52:12.589Z,0.00
2019-03-27T00:53:12.578Z,0.00
2019-03-27T00:54:12.567Z,0.00
2019-03-27T00:55:12.554Z,0.00
2019-03-27T00:56:12.560Z,0.00
2019-03-27T00:57:12.531Z,0.00
2019-03-27T00:58:12.523Z,0.00
2019-03-27T00:59:12.510Z,0.00
2019-03-27T01:00:12.502Z,0.00
2019-03-27T01:01:12.522Z,0.00
2019-03-27T01:02:12.476Z,0.00
2019-03-27T01:03:12.518Z,0.00
2019-03-27T01:04:12.454Z,0.00
2019-03-27T01:05:12.444Z,0.00
2019-03-27T01:06:12.433Z,0.00
2019-03-27T01:07:12.447Z,0.00
2019-03-27T01:08:12.410Z,0.00
2019-03-27T01:09:12.406Z,0.00
2019-03-27T01:10:12.387Z,0.00
2019-03-27T01:11:12.383Z,0.00
2019-03-27T01:12:12.364Z,0.00
2019-03-27T01:13:12.368Z,0.00
2019-03-27T01:14:12.342Z,0.00
2019-03-27T01:15:12.329Z,0.00
2019-03-27T01:16:12.318Z,0.00
2019-03-27T01:17:12.308Z,0.00
2019-03-27T01:18:12.328Z,0.00
2019-03-27T01:19:12.285Z,0.00
2019-03-27T01:20:12.275Z,0.00
2019-03-27T01:21:12.262Z,0.00
2019-03-27T01:22:12.252Z,0.00
2019-03-27T01:23:12.239Z,0.00
2019-03-27T01:24:12.258Z,0.00
2019-03-27T01:25:12.219Z,0.00
2019-03-27T01:26:12.209Z,0.00
2019-03-27T01:27:12.193Z,0.00
2019-03-27T01:28:12.187Z,0.00
2019-03-27T01:29:12.196Z,0.00
2019-03-27T01:30:12.174Z,0.00
2019-03-27T01:31:12.148Z,0.00
2019-03-27T01:32:12.137Z,0.00
2019-03-27T01:33:12.126Z,0.00
2019-03-27T01:34:12.116Z,0.00
2019-03-27T01:35:12.135Z,0.00
2019-03-27T01:36:12.093Z,0.00
2019-03-27T01:37:12.084Z,0.00
2019-03-27T01:38:12.068Z,0.00
2019-03-27T01:39:12.060Z,0.00
2019-03-27T01:40:12.047Z,0.00
2019-03-27T01:41:12.063Z,0.00
2019-03-27T01:42:12.023Z,0.00
2019-03-27T01:43:12.016Z,0.00
2019-03-27T01:44:12.001Z,0.00
2019-03-27T01:45:11.990Z,0.00
2019-03-27T01:46:11.978Z,0.00
2019-03-27T01:47:11.992Z,0.00
2019-03-27T01:48:11.957Z,0.00
2019-03-27T01:49:11.981Z,0.00
2019-03-27T01:50:21.241Z,0.00
2019-03-27T01:51:20.278Z,0.00
2019-03-27T01:52:19.568Z,0.00
2019-03-27T01:53:20.355Z,0.00
2019-03-27T01:54:21.395Z,0.00
2019-03-27T01:55:20.434Z,0.00
2019-03-27T01:56:21.471Z,0.00
2019-03-27T01:57:11.852Z,0.00
2019-03-27T01:58:11.858Z,0.00
2019-03-27T01:59:11.856Z,0.00
2019-03-27T02:00:11.820Z,0.00
2019-03-27T02:01:11.809Z,0.00
2019-03-27T02:02:11.798Z,0.00
2019-03-27T02:03:11.808Z,0.00
2019-03-27T02:04:11.773Z,0.00
2019-03-27T02:05:11.762Z,0.00
2019-03-27T02:06:11.751Z,0.00
2019-03-27T02:07:11.739Z,0.00
2019-03-27T02:08:11.821Z,0.00
2019-03-27T02:09:11.717Z,0.00
2019-03-27T02:10:11.704Z,0.00
2019-03-27T02:11:11.696Z,0.00
2019-03-27T02:12:11.684Z,0.00
2019-03-27T02:13:11.678Z,0.00
2019-03-27T02:14:11.689Z,0.00
2019-03-27T02:15:11.651Z,0.00
2019-03-27T02:16:11.644Z,0.00
2019-03-27T02:17:11.627Z,0.00
2019-03-27T02:18:11.619Z,0.00
2019-03-27T02:19:11.609Z,0.00
2019-03-27T02:20:11.610Z,0.00
2019-03-27T02:21:11.582Z,0.00
2019-03-27T02:22:11.570Z,0.00
2019-03-27T02:23:11.562Z,0.00
2019-03-27T02:24:11.548Z,0.00
2019-03-27T02:25:11.567Z,0.00
2019-03-27T02:26:11.527Z,0.00
2019-03-27T02:27:11.514Z,0.00
2019-03-27T02:28:11.502Z,0.00
2019-03-27T02:29:11.491Z,0.00
2019-03-27T02:30:11.485Z,0.00
2019-03-27T02:31:11.489Z,0.00
2019-03-27T02:32:11.466Z,0.00
2019-03-27T02:33:11.446Z,0.00
2019-03-27T02:34:11.479Z,0.00
2019-03-27T02:35:11.432Z,0.00
2019-03-27T02:36:11.448Z,0.00
2019-03-27T02:37:11.401Z,0.00
2019-03-27T02:38:11.390Z,0.00
2019-03-27T02:39:11.383Z,0.00
2019-03-27T02:40:11.371Z,0.00
2019-03-27T02:41:11.355Z,0.00
2019-03-27T02:42:11.370Z,0.00
2019-03-27T02:43:11.336Z,0.00
2019-03-27T02:44:11.406Z,0.00
2019-03-27T02:45:11.326Z,0.00
2019-03-27T02:46:23.658Z,0.00
2019-03-27T02:47:12.313Z,0.00
2019-03-27T02:48:13.974Z,0.00
2019-03-27T02:49:11.265Z,0.00
2019-03-27T02:50:11.259Z,0.00
2019-03-27T02:51:11.245Z,0.00
2019-03-27T02:52:11.233Z,0.00
2019-03-27T02:53:11.246Z,0.00
2019-03-27T02:54:11.210Z,0.00
2019-03-27T02:55:11.209Z,0.00
2019-03-27T02:56:11.185Z,0.00
2019-03-27T02:57:11.176Z,0.00
2019-03-27T02:58:11.168Z,0.00
2019-03-27T02:59:11.170Z,0.00
2019-03-27T03:00:11.166Z,0.00
2019-03-27T03:01:11.135Z,0.00
2019-03-27T03:02:11.119Z,0.00
2019-03-27T03:03:11.112Z,0.00
2019-03-27T03:04:11.124Z,0.00
2019-03-27T03:05:11.114Z,0.00
2019-03-27T03:06:11.075Z,0.00
2019-03-27T03:07:11.062Z,0.00
2019-03-27T03:08:11.051Z,0.00
2019-03-27T03:09:11.039Z,0.00
2019-03-27T03:10:11.045Z,0.00
2019-03-27T03:11:11.015Z,0.00
2019-03-27T03:12:11.004Z,0.00
2019-03-27T03:13:10.995Z,0.00
2019-03-27T03:14:10.984Z,0.00
2019-03-27T03:15:11.005Z,0.00
2019-03-27T03:16:10.960Z,0.00
2019-03-27T03:17:10.952Z,0.00
2019-03-27T03:18:10.945Z,0.00
2019-03-27T03:19:10.924Z,0.00
2019-03-27T03:20:10.930Z,0.00
2019-03-27T03:21:10.916Z,0.00
2019-03-27T03:22:10.896Z,0.00
2019-03-27T03:23:10.897Z,0.00
2019-03-27T03:24:10.881Z,0.00
2019-03-27T03:25:10.877Z,0.00
2019-03-27T03:26:10.852Z,0.00
2019-03-27T03:27:10.832Z,0.00
2019-03-27T03:28:10.823Z,0.00
2019-03-27T03:29:10.810Z,0.00
2019-03-27T03:30:10.833Z,0.00
2019-03-27T03:31:10.790Z,0.00
2019-03-27T03:32:10.781Z,0.00
2019-03-27T03:33:10.773Z,0.00
2019-03-27T03:34:10.763Z,0.00
2019-03-27T03:35:10.760Z,0.00
2019-03-27T03:36:10.749Z,0.00
2019-03-27T03:37:10.722Z,0.00
2019-03-27T03:38:10.715Z,0.00
2019-03-27T03:39:10.697Z,0.00
2019-03-27T03:40:10.684Z,0.00
2019-03-27T03:41:10.709Z,0.00
2019-03-27T03:42:10.665Z,0.00
2019-03-27T03:43:10.654Z,0.00
2019-03-27T03:44:10.643Z,0.00
2019-03-27T03:45:10.627Z,0.00
2019-03-27T03:46:10.619Z,0.00
2019-03-27T03:47:10.624Z,0.00
2019-03-27T03:48:10.599Z,0.00
2019-03-27T03:49:10.584Z,0.00
2019-03-27T03:50:10.573Z,0.00
2019-03-27T03:51:10.563Z,0.00
2019-03-27T03:52:10.567Z,0.00
2019-03-27T03:53:10.540Z,0.00
2019-03-27T03:54:10.527Z,0.00
2019-03-27T03:55:10.517Z,0.00
2019-03-27T03:56:10.540Z,0.00
2019-03-27T03:57:10.493Z,0.00
2019-03-27T03:58:10.482Z,0.00
2019-03-27T03:59:10.471Z,0.00
2019-03-27T04:00:10.463Z,0.00
2019-03-27T04:01:10.449Z,0.00
2019-03-27T04:02:10.456Z,0.00
2019-03-27T04:03:10.426Z,0.00
2019-03-27T04:04:10.417Z,0.00
2019-03-27T04:05:10.409Z,0.00
2019-03-27T04:06:10.396Z,0.00
2019-03-27T04:07:10.397Z,0.00
2019-03-27T04:08:10.370Z,0.00
2019-03-27T04:09:10.357Z,0.00
2019-03-27T04:10:10.347Z,0.00
2019-03-27T04:11:10.337Z,0.00
2019-03-27T04:12:10.362Z,0.00
2019-03-27T04:13:10.311Z,0.00
2019-03-27T04:14:10.303Z,0.00
2019-03-27T04:15:10.293Z,0.00
2019-03-27T04:16:10.287Z,0.00
2019-03-27T04:17:17.499Z,0.00
2019-03-27T04:18:11.272Z,0.00
2019-03-27T04:19:10.246Z,0.00
2019-03-27T04:20:10.235Z,0.00
2019-03-27T04:21:10.228Z,0.00
2019-03-27T04:22:10.222Z,0.00
2019-03-27T04:23:10.220Z,0.00
2019-03-27T04:24:10.190Z,0.00
2019-03-27T04:25:10.186Z,0.00
2019-03-27T04:26:10.917Z,0.00
2019-03-27T04:27:10.155Z,0.00
2019-03-27T04:28:10.174Z,0.00
2019-03-27T04:29:10.135Z,0.00
2019-03-27T04:30:10.121Z,0.00
2019-03-27T04:31:10.113Z,0.00
2019-03-27T04:32:10.104Z,0.00
2019-03-27T04:33:10.091Z,0.00
2019-03-27T04:34:10.094Z,0.00
2019-03-27T04:35:10.069Z,0.00
2019-03-27T04:36:10.056Z,0.00
2019-03-27T04:37:10.042Z,0.00
2019-03-27T04:38:10.036Z,0.00
2019-03-27T04:39:10.063Z,0.00
2019-03-27T04:40:10.010Z,0.00
2019-03-27T04:41:09.998Z,0.00
2019-03-27T04:42:09.988Z,0.00
2019-03-27T04:43:09.977Z,0.00
2019-03-27T04:44:09.992Z,0.00
2019-03-27T04:45:09.961Z,0.00
2019-03-27T04:46:09.941Z,0.00
2019-03-27T04:47:09.936Z,0.00
2019-03-27T04:48:09.920Z,0.00
2019-03-27T04:49:09.912Z,0.00
2019-03-27T04:50:09.914Z,0.00
2019-03-27T04:51:09.887Z,0.00
2019-03-27T04:52:09.875Z,0.00
2019-03-27T04:53:09.862Z,0.00
2019-03-27T04:54:09.852Z,0.00
2019-03-27T04:55:09.868Z,0.00
2019-03-27T04:56:09.828Z,0.00
2019-03-27T04:57:09.817Z,0.00
2019-03-27T04:58:09.806Z,0.00
2019-03-27T04:59:09.797Z,0.00
2019-03-27T05:00:09.868Z,0.00
2019-03-27T05:01:09.790Z,0.00
2019-03-27T05:02:09.763Z,0.00
2019-03-27T05:03:09.754Z,0.00
2019-03-27T05:04:09.744Z,0.00
2019-03-27T05:05:09.730Z,0.00
2019-03-27T05:06:09.731Z,0.00
2019-03-27T05:07:09.706Z,0.00
2019-03-27T05:08:09.696Z,0.00
2019-03-27T05:09:09.685Z,0.00
2019-03-27T05:10:09.673Z,5.62
2019-03-27T05:11:09.690Z,5.62
2019-03-27T05:12:09.653Z,5.62
2019-03-27T05:13:09.642Z,5.62
2019-03-27T05:14:09.628Z,5.62
2019-03-27T05:15:09.614Z,5.62
2019-03-27T05:16:09.606Z,5.62
2019-03-27T05:17:09.619Z,5.62
2019-03-27T05:18:09.588Z,5.62
2019-03-27T05:19:09.571Z,5.62
2019-03-27T05:20:09.562Z,5.62
2019-03-27T05:21:09.550Z,5.62
2019-03-27T05:22:09.538Z,5.62
2019-03-27T05:23:09.544Z,5.62
2019-03-27T05:24:09.515Z,5.62
2019-03-27T05:25:09.506Z,5.62
2019-03-27T05:26:09.493Z,5.62
2019-03-27T05:27:09.483Z,5.62
2019-03-27T05:28:09.489Z,5.62
2019-03-27T05:29:09.460Z,5.62
2019-03-27T05:30:09.456Z,5.62
2019-03-27T05:31:09.437Z,5.62
2019-03-27T05:32:09.426Z,5.62
2019-03-27T05:33:09.433Z,5.62
2019-03-27T05:34:09.404Z,5.62
2019-03-27T05:35:09.394Z,5.62
2019-03-27T05:36:09.385Z,5.62
2019-03-27T05:37:09.372Z,5.62
2019-03-27T05:38:09.393Z,5.62
2019-03-27T05:39:09.347Z,5.62
2019-03-27T05:40:09.336Z,11.25
2019-03-27T05:41:09.325Z,11.25
2019-03-27T05:42:09.314Z,11.25
2019-03-27T05:43:09.301Z,11.25
2019-03-27T05:44:09.318Z,11.25
2019-03-27T05:45:09.281Z,11.25
2019-03-27T05:46:09.270Z,11.25
2019-03-27T05:47:09.264Z,16.88
2019-03-27T05:48:09.245Z,11.25
2019-03-27T05:49:09.235Z,11.25
2019-03-27T05:50:09.239Z,16.88
2019-03-27T05:51:09.219Z,11.25
2019-03-27T05:52:09.205Z,11.25
2019-03-27T05:53:09.190Z,16.88
2019-03-27T05:54:09.180Z,16.88
2019-03-27T05:55:09.184Z,16.88
2019-03-27T05:56:09.156Z,16.88
2019-03-27T05:57:09.146Z,16.88
2019-03-27T05:58:09.133Z,16.88
2019-03-27T05:59:09.123Z,11.25
2019-03-27T06:00:09.139Z,16.88
2019-03-27T06:01:09.098Z,16.88
2019-03-27T06:02:09.086Z,22.50
2019-03-27T06:03:09.076Z,16.88
2019-03-27T06:04:09.064Z,16.88
2019-03-27T06:05:09.062Z,16.88
2019-03-27T06:06:09.072Z,16.88
2019-03-27T06:07:09.031Z,22.50
2019-03-27T06:08:09.021Z,22.50
2019-03-27T06:09:09.007Z,22.50
2019-03-27T06:10:08.999Z,16.88
2019-03-27T06:11:08.986Z,22.50
2019-03-27T06:12:09.002Z,22.50
2019-03-27T06:13:08.962Z,22.50
2019-03-27T06:14:08.951Z,22.50
2019-03-27T06:15:08.941Z,28.12
2019-03-27T06:16:08.931Z,28.12
2019-03-27T06:17:08.918Z,28.12
2019-03-27T06:18:13.343Z,33.75
2019-03-27T06:19:08.895Z,28.12
2019-03-27T06:20:08.887Z,28.12
2019-03-27T06:21:08.872Z,28.12
2019-03-27T06:22:08.863Z,28.12
2019-03-27T06:23:08.866Z,22.50
2019-03-27T06:24:08.840Z,22.50
2019-03-27T06:25:08.827Z,22.50
2019-03-27T06:26:08.821Z,22.50
2019-03-27T06:27:08.806Z,22.50
2019-03-27T06:28:08.823Z,22.50
2019-03-27T06:29:08.783Z,22.50
2019-03-27T06:30:08.773Z,22.50
2019-03-27T06:31:08.758Z,22.50
2019-03-27T06:32:08.752Z,22.50
2019-03-27T06:33:08.741Z,28.12
2019-03-27T06:34:17.813Z,28.12
2019-03-27T06:35:08.714Z,28.12
2019-03-27T06:36:17.093Z,33.75
2019-03-27T06:37:08.692Z,33.75
2019-03-27T06:38:08.680Z,39.38
2019-03-27T06:39:08.700Z,39.38
2019-03-27T06:40:08.660Z,39.38
2019-03-27T06:41:08.648Z,45.00
2019-03-27T06:42:08.637Z,45.00
2019-03-27T06:43:08.624Z,39.38
2019-03-27T06:44:08.613Z,39.38
2019-03-27T06:45:08.619Z,45.00
2019-03-27T06:46:08.590Z,45.00
2019-03-27T06:47:08.580Z,45.00
2019-03-27T06:48:08.567Z,39.38
2019-03-27T06:49:08.559Z,39.38
2019-03-27T06:50:08.561Z,39.38
2019-03-27T06:51:08.536Z,39.38
2019-03-27T06:52:08.523Z,39.38
2019-03-27T06:53:08.512Z,33.75
2019-03-27T06:54:08.506Z,33.75
2019-03-27T06:55:08.519Z,33.75
2019-03-27T06:56:08.481Z,39.38
2019-03-27T06:57:08.470Z,39.38
2019-03-27T06:58:08.455Z,39.38
2019-03-27T06:59:08.446Z,39.38
2019-03-27T07:00:08.433Z,39.38
2019-03-27T07:01:08.450Z,39.38
2019-03-27T07:02:08.411Z,39.38
2019-03-27T07:03:08.400Z,39.38
2019-03-27T07:04:10.893Z,39.38
2019-03-27T07:05:08.377Z,39.38
2019-03-27T07:06:08.366Z,39.38
2019-03-27T07:07:08.373Z,39.38
2019-03-27T07:08:08.349Z,39.38
2019-03-27T07:09:08.332Z,39.38
2019-03-27T07:10:08.321Z,39.38
2019-03-27T07:11:08.310Z,39.38
2019-03-27T07:12:20.552Z,39.38
2019-03-27T07:13:09.286Z,39.38
2019-03-27T07:14:08.279Z,39.38
2019-03-27T07:15:08.267Z,39.38
2019-03-27T07:16:08.254Z,39.38
2019-03-27T07:17:08.244Z,33.75
2019-03-27T07:18:08.263Z,33.75
2019-03-27T07:19:08.222Z,33.75
2019-03-27T07:20:16.635Z,39.38
2019-03-27T07:21:08.201Z,39.38
2019-03-27T07:22:08.188Z,39.38
2019-03-27T07:23:08.177Z,39.38
2019-03-27T07:24:08.182Z,39.38
2019-03-27T07:25:08.154Z,33.75
2019-03-27T07:26:08.143Z,33.75
2019-03-27T07:27:08.131Z,33.75
2019-03-27T07:28:08.121Z,33.75
2019-03-27T07:29:08.146Z,33.75
2019-03-27T07:30:08.098Z,28.12
2019-03-27T07:31:08.092Z,28.12
2019-03-27T07:32:08.077Z,28.12
2019-03-27T07:33:08.070Z,28.12
2019-03-27T07:34:08.054Z,28.12
2019-03-27T07:35:08.061Z,33.75
2019-03-27T07:36:08.031Z,33.75
2019-03-27T07:37:08.022Z,33.75
2019-03-27T07:38:08.008Z,33.75
2019-03-27T07:39:11.144Z,28.12
2019-03-27T07:40:08.012Z,28.12
2019-03-27T07:41:07.977Z,28.12
2019-03-27T07:42:07.965Z,28.12
2019-03-27T07:43:07.954Z,28.12
2019-03-27T07:44:07.944Z,33.75
2019-03-27T07:45:07.931Z,33.75
2019-03-27T07:46:07.938Z,39.38
2019-03-27T07:47:07.918Z,39.38
2019-03-27T07:48:07.900Z,45.00
2019-03-27T07:49:07.887Z,50.62
2019-03-27T07:50:07.875Z,45.00
2019-03-27T07:51:07.890Z,45.00
2019-03-27T07:52:07.852Z,45.00
2019-03-27T07:53:07.841Z,50.62
2019-03-27T07:54:07.829Z,50.62
2019-03-27T07:55:18.651Z,45.00
2019-03-27T07:56:08.834Z,45.00
2019-03-27T07:57:07.796Z,45.00
2019-03-27T07:58:07.786Z,39.38
2019-03-27T07:59:07.774Z,39.38
2019-03-27T08:00:07.767Z,39.38
2019-03-27T08:01:07.752Z,39.38
2019-03-27T08:02:07.759Z,39.38
2019-03-27T08:03:07.735Z,39.38
2019-03-27T08:04:07.717Z,39.38
2019-03-27T08:05:07.708Z,39.38
2019-03-27T08:06:07.694Z,39.38
2019-03-27T08:07:07.701Z,39.38
2019-03-27T08:08:07.674Z,39.38
2019-03-27T08:09:07.660Z,39.38
2019-03-27T08:10:07.650Z,45.00
2019-03-27T08:11:07.640Z,45.00
2019-03-27T08:12:07.668Z,45.00
2019-03-27T08:13:07.619Z,50.62
2019-03-27T08:14:07.606Z,45.00
2019-03-27T08:15:07.597Z,50.62
2019-03-27T08:16:07.587Z,50.62
2019-03-27T08:17:07.592Z,50.62
2019-03-27T08:18:07.570Z,50.62
2019-03-27T08:19:08.229Z,56.25
2019-03-27T08:20:07.537Z,56.25
2019-03-27T08:21:07.525Z,56.25
2019-03-27T08:22:07.545Z,56.25
2019-03-27T08:23:07.505Z,56.25
2019-03-27T08:24:07.493Z,56.25
2019-03-27T08:25:07.482Z,56.25
2019-03-27T08:26:07.472Z,56.25
2019-03-27T08:27:07.462Z,56.25
2019-03-27T08:28:07.480Z,56.25
2019-03-27T08:29:07.440Z,61.88
2019-03-27T08:30:07.433Z,61.88
2019-03-27T08:31:07.414Z,67.50
2019-03-27T08:32:07.407Z,67.50
2019-03-27T08:33:07.392Z,73.12
2019-03-27T08:34:07.400Z,73.12
2019-03-27T08:35:07.369Z,73.12
2019-03-27T08:36:07.363Z,73.12
2019-03-27T08:37:07.352Z,67.50
2019-03-27T08:38:07.336Z,67.50
2019-03-27T08:39:07.353Z,73.12
2019-03-27T08:40:07.315Z,73.12
2019-03-27T08:41:07.304Z,73.12
2019-03-27T08:42:07.291Z,78.75
2019-03-27T08:43:20.287Z,78.75
2019-03-27T08:44:08.293Z,78.75
2019-03-27T08:45:07.257Z,78.75
2019-03-27T08:46:07.255Z,78.75
2019-03-27T08:47:07.237Z,78.75
2019-03-27T08:48:07.226Z,78.75
2019-03-27T08:49:20.766Z,78.75
2019-03-27T08:50:08.219Z,78.75
2019-03-27T08:51:07.189Z,78.75
2019-03-27T08:52:07.181Z,78.75
2019-03-27T08:53:07.168Z,78.75
2019-03-27T08:54:07.162Z,84.38
2019-03-27T08:55:07.166Z,84.38
2019-03-27T08:56:07.135Z,84.38
2019-03-27T08:57:07.123Z,84.38
2019-03-27T08:58:07.111Z,90.00
2019-03-27T08:59:07.098Z,84.38
2019-03-27T09:00:07.117Z,84.38
2019-03-27T09:01:07.078Z,84.38
2019-03-27T09:02:07.067Z,90.00
2019-03-27T09:03:07.054Z,90.00
2019-03-27T09:04:07.047Z,90.00
2019-03-27T09:05:07.034Z,95.62
2019-03-27T09:06:07.051Z,95.62
2019-03-27T09:07:07.009Z,90.00
2019-03-27T09:08:07.002Z,90.00
2019-03-27T09:09:06.993Z,90.00
2019-03-27T09:10:06.979Z,90.00
2019-03-27T09:11:06.967Z,84.38
2019-03-27T09:12:06.973Z,78.75
2019-03-27T09:13:06.944Z,78.75
2019-03-27T09:14:06.932Z,78.75
2019-03-27T09:15:06.919Z,84.38
2019-03-27T09:16:06.914Z,90.00
2019-03-27T09:17:06.913Z,90.00
2019-03-27T09:18:06.890Z,90.00
2019-03-27T09:19:06.874Z,95.62
2019-03-27T09:20:06.864Z,101.25
2019-03-27T09:21:06.856Z,101.25
2019-03-27T09:22:06.872Z,101.25
2019-03-27T09:23:06.833Z,106.88
2019-03-27T09:24:06.819Z,112.50
2019-03-27T09:25:06.809Z,106.88
2019-03-27T09:26:06.796Z,112.50
2019-03-27T09:27:06.786Z,112.50
2019-03-27T09:28:06.802Z,118.12
2019-03-27T09:29:08.401Z,123.75
2019-03-27T09:30:06.751Z,129.38
2019-03-27T09:31:06.740Z,129.38
2019-03-27T09:32:06.732Z,140.62
2019-03-27T09:33:06.718Z,151.88
2019-03-27T09:34:06.722Z,151.88
2019-03-27T09:35:06.694Z,146.25
2019-03-27T09:36:06.863Z,135.00
2019-03-27T09:37:06.674Z,135.00
2019-03-27T09:38:06.663Z,135.00
2019-03-27T09:39:06.664Z,140.62
2019-03-27T09:40:06.640Z,140.62
2019-03-27T09:41:06.628Z,146.25
2019-03-27T09:42:06.617Z,157.50
2019-03-27T09:43:06.604Z,174.38
2019-03-27T09:44:06.621Z,174.38
2019-03-27T09:45:06.580Z,180.00
2019-03-27T09:46:06.569Z,168.75
2019-03-27T09:47:06.588Z,191.25
2019-03-27T09:48:06.547Z,208.12
2019-03-27T09:49:06.534Z,213.75
2019-03-27T09:50:06.539Z,230.62
2019-03-27T09:51:06.513Z,241.88
2019-03-27T09:52:06.501Z,258.75
2019-03-27T09:53:06.496Z,264.38
2019-03-27T09:54:06.478Z,264.38
2019-03-27T09:55:06.495Z,270.00
2019-03-27T09:56:18.525Z,286.88
2019-03-27T09:57:07.443Z,281.25
2019-03-27T09:58:06.433Z,264.38
2019-03-27T09:59:06.425Z,247.50
2019-03-27T10:00:06.414Z,225.00
2019-03-27T10:01:06.426Z,191.25
2019-03-27T10:02:06.390Z,168.75
2019-03-27T10:03:06.377Z,168.75
2019-03-27T10:04:06.371Z,168.75
2019-03-27T10:05:06.353Z,168.75
2019-03-27T10:06:06.346Z,140.62
2019-03-27T10:07:06.348Z,129.38
2019-03-27T10:08:06.321Z,157.50
2019-03-27T10:09:06.308Z,202.50
2019-03-27T10:10:06.299Z,247.50
2019-03-27T10:11:06.288Z,208.12
2019-03-27T10:12:06.291Z,174.38
2019-03-27T10:13:06.264Z,191.25
2019-03-27T10:14:06.251Z,236.25
2019-03-27T10:15:06.240Z,230.62
2019-03-27T10:16:06.228Z,213.75
2019-03-27T10:17:06.246Z,202.50
2019-03-27T10:18:06.206Z,196.88
2019-03-27T10:19:06.195Z,202.50
2019-03-27T10:20:06.187Z,219.38
2019-03-27T10:21:06.172Z,230.62
2019-03-27T10:22:06.163Z,230.62
2019-03-27T10:23:06.175Z,225.00
2019-03-27T10:24:06.137Z,202.50
2019-03-27T10:25:06.127Z,174.38
2019-03-27T10:26:06.115Z,174.38
2019-03-27T10:27:06.106Z,168.75
2019-03-27T10:28:06.100Z,129.38
2019-03-27T10:29:06.096Z,129.38
2019-03-27T10:30:06.076Z,123.75
2019-03-27T10:31:06.059Z,84.38
2019-03-27T10:32:06.048Z,84.38
2019-03-27T10:33:06.036Z,95.62
2019-03-27T10:34:06.045Z,112.50
2019-03-27T10:35:06.015Z,123.75
2019-03-27T10:36:06.009Z,112.50
2019-03-27T10:37:05.991Z,106.88
2019-03-27T10:38:05.981Z,106.88
2019-03-27T10:39:05.999Z,112.50
2019-03-27T10:40:05.957Z,95.62
2019-03-27T10:41:05.948Z,95.62
2019-03-27T10:42:05.935Z,95.62
2019-03-27T10:43:05.923Z,106.88
2019-03-27T10:44:05.913Z,112.50
2019-03-27T10:45:05.928Z,140.62
2019-03-27T10:46:05.892Z,140.62
2019-03-27T10:47:05.879Z,135.00
2019-03-27T10:48:05.867Z,135.00
2019-03-27T10:49:05.855Z,151.88
2019-03-27T10:50:16.921Z,174.38
2019-03-27T10:51:06.862Z,163.12
2019-03-27T10:52:05.822Z,157.50
2019-03-27T10:53:05.815Z,112.50
2019-03-27T10:54:05.802Z,123.75
2019-03-27T10:55:05.790Z,140.62
2019-03-27T10:56:05.781Z,163.12
2019-03-27T10:57:05.806Z,202.50
2019-03-27T10:58:05.754Z,219.38
2019-03-27T10:59:05.746Z,202.50
2019-03-27T11:00:05.732Z,185.62
2019-03-27T11:01:07.334Z,146.25
2019-03-27T11:02:05.708Z,129.38
2019-03-27T11:03:05.727Z,163.12
2019-03-27T11:04:05.686Z,208.12
2019-03-27T11:05:05.674Z,303.75
2019-03-27T11:06:05.665Z,798.75
2019-03-27T11:07:05.652Z,382.50
2019-03-27T11:08:05.642Z,247.50
2019-03-27T11:09:05.647Z,219.38
2019-03-27T11:10:05.618Z,180.00
2019-03-27T11:11:05.606Z,174.38
2019-03-27T11:12:05.598Z,174.38
2019-03-27T11:13:05.589Z,157.50
2019-03-27T11:14:05.601Z,208.12
2019-03-27T11:15:05.563Z,270.00
2019-03-27T11:16:05.556Z,286.88
2019-03-27T11:17:05.543Z,281.25
2019-03-27T11:18:05.527Z,292.50
2019-03-27T11:19:05.517Z,281.25
2019-03-27T11:20:05.534Z,196.88
2019-03-27T11:21:05.493Z,168.75
2019-03-27T11:22:05.482Z,140.62
2019-03-27T11:23:05.470Z,135.00
2019-03-27T11:24:05.461Z,135.00
2019-03-27T11:25:05.448Z,135.00
2019-03-27T11:26:05.455Z,123.75
2019-03-27T11:27:05.459Z,118.12
2019-03-27T11:28:05.418Z,101.25
2019-03-27T11:29:05.403Z,90.00
2019-03-27T11:30:05.391Z,84.38
2019-03-27T11:31:05.420Z,90.00
2019-03-27T11:32:05.375Z,84.38
2019-03-27T11:33:05.359Z,78.75
2019-03-27T11:34:05.366Z,78.75
2019-03-27T11:35:05.353Z,84.38
2019-03-27T11:36:05.343Z,84.38
2019-03-27T11:37:05.376Z,90.00
2019-03-27T11:38:05.321Z,168.75
2019-03-27T11:39:05.299Z,163.12
2019-03-27T11:40:05.282Z,106.88
2019-03-27T11:41:05.269Z,90.00
2019-03-27T11:42:05.282Z,84.38
2019-03-27T11:43:05.247Z,84.38
2019-03-27T11:44:05.234Z,78.75
2019-03-27T11:45:05.222Z,78.75
2019-03-27T11:46:13.727Z,84.38
2019-03-27T11:47:05.217Z,101.25
2019-03-27T11:48:08.043Z,129.38
2019-03-27T11:49:05.182Z,157.50
2019-03-27T11:50:05.173Z,168.75
2019-03-27T11:51:05.157Z,174.38
2019-03-27T11:52:05.180Z,140.62
2019-03-27T11:53:05.133Z,118.12
2019-03-27T11:54:05.123Z,90.00
2019-03-27T11:55:05.114Z,73.12
2019-03-27T11:56:05.097Z,61.88
2019-03-27T11:57:05.087Z,56.25
2019-03-27T11:58:05.105Z,67.50
2019-03-27T11:59:05.067Z,95.62
2019-03-27T12:00:05.054Z,146.25
2019-03-27T12:01:05.047Z,180.00
2019-03-27T12:02:05.030Z,196.88
2019-03-27T12:03:05.022Z,196.88
2019-03-27T12:04:05.026Z,168.75
2019-03-27T12:05:04.999Z,146.25
2019-03-27T12:06:04.986Z,129.38
2019-03-27T12:07:04.974Z,118.12
2019-03-27T12:08:04.966Z,140.62
2019-03-27T12:09:04.979Z,146.25
2019-03-27T12:10:04.945Z,157.50
2019-03-27T12:11:04.928Z,174.38
2019-03-27T12:12:04.918Z,185.62
2019-03-27T12:13:04.908Z,191.25
2019-03-27T12:14:04.894Z,157.50
2019-03-27T12:15:04.900Z,118.12
2019-03-27T12:16:04.872Z,90.00
2019-03-27T12:17:04.862Z,84.38
2019-03-27T12:18:04.849Z,78.75
2019-03-27T12:19:04.841Z,90.00
2019-03-27T12:20:04.856Z,90.00
2019-03-27T12:21:04.815Z,84.38
2019-03-27T12:22:04.806Z,95.62
2019-03-27T12:23:04.793Z,112.50
2019-03-27T12:24:04.783Z,163.12
2019-03-27T12:25:04.771Z,174.38
2019-03-27T12:26:04.775Z,174.38
2019-03-27T12:27:04.753Z,168.75
2019-03-27T12:28:04.739Z,135.00
2019-03-27T12:29:04.729Z,146.25
2019-03-27T12:30:04.715Z,180.00
2019-03-27T12:31:04.731Z,185.62
2019-03-27T12:32:04.693Z,168.75
2019-03-27T12:33:04.685Z,135.00
2019-03-27T12:34:04.672Z,135.00
2019-03-27T12:35:04.659Z,129.38
2019-03-27T12:36:04.647Z,151.88
2019-03-27T12:37:04.650Z,129.38
2019-03-27T12:38:04.647Z,112.50
2019-03-27T12:39:04.614Z,95.62
2019-03-27T12:40:11.333Z,84.38
2019-03-27T12:41:05.588Z,67.50
2019-03-27T12:42:04.595Z,50.62
2019-03-27T12:43:04.570Z,45.00
2019-03-27T12:44:04.560Z,45.00
2019-03-27T12:45:04.545Z,39.38
2019-03-27T12:46:04.544Z,39.38
2019-03-27T12:47:04.550Z,39.38
2019-03-27T12:48:04.511Z,39.38
2019-03-27T12:49:04.500Z,39.38
2019-03-27T12:50:04.497Z,45.00
2019-03-27T12:51:12.825Z,50.62
2019-03-27T12:52:05.688Z,56.25
2019-03-27T12:53:04.454Z,61.88
2019-03-27T12:54:04.446Z,56.25
2019-03-27T12:55:04.434Z,61.88
2019-03-27T12:56:04.425Z,56.25
2019-03-27T12:57:04.414Z,61.88
2019-03-27T12:58:04.426Z,73.12